地図

経路データ

SID SEASON NUMBER BASIN SUBBASIN NAME ISO_TIME NATURE LAT LON WMO_WIND WMO_PRES WMO_AGENCY TRACK_TYPE DIST2LAND LANDFALL IFLAG USA_AGENCY USA_ATCF_ID USA_LAT USA_LON USA_RECORD USA_STATUS USA_WIND USA_PRES USA_SSHS USA_R34_NE USA_R34_SE USA_R34_SW USA_R34_NW USA_R50_NE USA_R50_SE USA_R50_SW USA_R50_NW USA_R64_NE USA_R64_SE USA_R64_SW USA_R64_NW USA_POCI USA_ROCI USA_RMW USA_EYE TOKYO_LAT TOKYO_LON TOKYO_GRADE TOKYO_WIND TOKYO_PRES TOKYO_R50_DIR TOKYO_R50_LONG TOKYO_R50_SHORT TOKYO_R30_DIR TOKYO_R30_LONG TOKYO_R30_SHORT TOKYO_LAND CMA_LAT CMA_LON CMA_CAT CMA_WIND CMA_PRES HKO_LAT HKO_LON HKO_CAT HKO_WIND HKO_PRES NEWDELHI_LAT NEWDELHI_LON NEWDELHI_GRADE NEWDELHI_WIND NEWDELHI_PRES NEWDELHI_CI NEWDELHI_DP NEWDELHI_POCI REUNION_LAT REUNION_LON REUNION_TYPE REUNION_WIND REUNION_PRES REUNION_TNUM REUNION_CI REUNION_RMW REUNION_R34_NE REUNION_R34_SE REUNION_R34_SW REUNION_R34_NW REUNION_R50_NE REUNION_R50_SE REUNION_R50_SW REUNION_R50_NW REUNION_R64_NE REUNION_R64_SE REUNION_R64_SW REUNION_R64_NW BOM_LAT BOM_LON BOM_TYPE BOM_WIND BOM_PRES BOM_TNUM BOM_CI BOM_RMW BOM_R34_NE BOM_R34_SE BOM_R34_SW BOM_R34_NW BOM_R50_NE BOM_R50_SE BOM_R50_SW BOM_R50_NW BOM_R64_NE BOM_R64_SE BOM_R64_SW BOM_R64_NW BOM_ROCI BOM_POCI BOM_EYE BOM_POS_METHOD BOM_PRES_METHOD NADI_LAT NADI_LON NADI_CAT NADI_WIND NADI_PRES WELLINGTON_LAT WELLINGTON_LON WELLINGTON_WIND WELLINGTON_PRES DS824_LAT DS824_LON DS824_STAGE DS824_WIND DS824_PRES TD9636_LAT TD9636_LON TD9636_STAGE TD9636_WIND TD9636_PRES TD9635_LAT TD9635_LON TD9635_WIND TD9635_PRES TD9635_ROCI NEUMANN_LAT NEUMANN_LON NEUMANN_CLASS NEUMANN_WIND NEUMANN_PRES MLC_LAT MLC_LON MLC_CLASS MLC_WIND MLC_PRES USA_GUST BOM_GUST BOM_GUST_PER REUNION_GUST REUNION_GUST_PER USA_SEAHGT USA_SEARAD_NE USA_SEARAD_SE USA_SEARAD_SW USA_SEARAD_NW STORM_SPEED STORM_DIR
1958157N12262 1958 39 EP MM NOT_NAMED 1958-06-06 00:00:00 TS 12.1000 -98.0000 75 hurdat_epa main 420 420 O________OO___ hurdat_epa EP011958 12.1000 -98.0000 HU 75 1 12.1000 -98.0000 TC 75 12.1000 -98.0000 4 10 282
1958157N12262 1958 39 EP MM NOT_NAMED 1958-06-06 03:00:00 TS 12.2052 -98.5100 main 432 428 P________PP___ EP011958 12.2102 -98.5099 HU 75 1 12.2102 -98.5099 TC 75 12.1854 -98.5106 4 10 281
1958157N12262 1958 39 EP MM NOT_NAMED 1958-06-06 06:00:00 TS 12.2932 -98.9994 75 hurdat_epa main 433 433 O________OP___ hurdat_epa EP011958 12.3000 -99.0000 HU 75 1 12.3000 -99.0000 TC 75 12.2662 -98.9971 4 9 279
1958157N12262 1958 39 EP MM NOT_NAMED 1958-06-06 09:00:00 TS 12.3537 -99.4430 main 438 438 P________PP___ EP011958 12.3575 -99.4450 HU 75 1 12.3575 -99.4450 TC 75 12.3388 -99.4351 4 8 278
1958157N12262 1958 39 EP MM NOT_NAMED 1958-06-06 12:00:00 TS 12.4000 -99.8000 75 hurdat_epa main 455 455 O________OO___ hurdat_epa EP011958 12.4000 -99.8000 HU 75 1 12.4000 -99.8000 TC 75 12.4000 -99.8000 4 6 279
1958157N12262 1958 39 EP MM NOT_NAMED 1958-06-06 15:00:00 TS 12.4496 -100.034 main 461 451 P________PP___ EP011958 12.4499 -100.023 HU 75 1 12.4499 -100.023 TC 75 12.4486 -100.078 4 4 284
1958157N12262 1958 39 EP MM NOT_NAMED 1958-06-06 18:00:00 TS 12.4984 -100.219 75 hurdat_epa main 459 459 O________OP___ hurdat_epa EP011958 12.5000 -100.200 HU 75 1 12.5000 -100.200 TC 75 12.4918 -100.295 4 4 283
1958157N12262 1958 39 EP MM NOT_NAMED 1958-06-06 21:00:00 TS 12.5418 -100.446 main 467 462 P________PP___ EP011958 12.5425 -100.435 HU 75 1 12.5425 -100.435 TC 75 12.5393 -100.490 4 5 282
1958157N12262 1958 39 EP MM NOT_NAMED 1958-06-07 00:00:00 TS 12.6000 -100.700 75 hurdat_epa main 471 466 O________OO___ hurdat_epa EP011958 12.6000 -100.700 HU 75 1 12.6000 -100.700 TC 75 12.6000 -100.700 4 6 286
1958157N12262 1958 39 EP MM NOT_NAMED 1958-06-07 03:00:00 TS 12.6919 -100.990 main 469 465 P________PP___ EP011958 12.6925 -100.993 HU 75 1 12.6925 -100.993 TC 75 12.6897 -100.982 4 6 289
1958157N12262 1958 39 EP MM NOT_NAMED 1958-06-07 06:00:00 TS 12.7985 -101.297 75 hurdat_epa main 469 463 O________OP___ hurdat_epa EP011958 12.8000 -101.300 HU 75 1 12.8000 -101.300 TC 75 12.7926 -101.285 4 6 290
1958157N12262 1958 39 EP MM NOT_NAMED 1958-06-07 09:00:00 TS 12.9058 -101.599 main 471 466 P________PP___ EP011958 12.9075 -101.600 HU 75 1 12.9075 -101.600 TC 75 12.8991 -101.595 4 6 289
1958157N12262 1958 39 EP MM NOT_NAMED 1958-06-07 12:00:00 TS 13.0000 -101.900 75 hurdat_epa main 476 476 O________OO___ hurdat_epa EP011958 13.0000 -101.900 HU 75 1 13.0000 -101.900 TC 75 13.0000 -101.900 4 6 284
1958157N12262 1958 39 EP MM NOT_NAMED 1958-06-07 15:00:00 TS 13.0532 -102.203 main 482 482 P________PP___ EP011958 13.0500 -102.208 HU 60 0 13.0500 -102.208 TC 60 13.0658 -102.186 4 6 280
1958157N12262 1958 39 EP MM NOT_NAMED 1958-06-07 18:00:00 TS 13.1055 -102.493 45 992 hurdat_epa main 493 490 O________OP___ hurdat_epa EP011958 13.1000 -102.500 TS 45 992 0 13.1000 -102.500 TC 45 992 13.1274 -102.465 4 6 284
1958157N12262 1958 39 EP MM NOT_NAMED 1958-06-07 21:00:00 TS 13.1880 -102.753 main 493 487 P________PP___ EP011958 13.1850 -102.758 TS 60 0 13.1850 -102.758 TC 60 13.2002 -102.736 4 5 291
1958157N12262 1958 39 EP MM NOT_NAMED 1958-06-08 00:00:00 TS 13.3000 -103.000 75 hurdat_epa main 491 486 O________OO___ hurdat_epa EP011958 13.3000 -103.000 HU 75 1 13.3000 -103.000 TC 75 13.3000 -103.000 4 5 297
1958157N12262 1958 39 EP MM NOT_NAMED 1958-06-08 03:00:00 TS 13.4372 -103.249 main 491 481 P________PP___ EP011958 13.4350 -103.250 HU 75 1 13.4350 -103.250 TC 75 13.4461 -103.245 4 6 302
1958157N12262 1958 39 EP MM NOT_NAMED 1958-06-08 06:00:00 TS 13.6039 -103.497 75 hurdat_epa main 487 480 O________OP___ hurdat_epa EP011958 13.6000 -103.500 HU 75 1 13.6000 -103.500 TC 75 13.6197 -103.485 4 6 307
1958157N12262 1958 39 EP MM NOT_NAMED 1958-06-08 09:00:00 TS 13.8017 -103.741 main 480 468 P________PP___ EP011958 13.8000 -103.743 HU 75 1 13.8000 -103.743 TC 75 13.8085 -103.733 4 6 309
1958157N12262 1958 39 EP MM NOT_NAMED 1958-06-08 12:00:00 TS 14.0000 -104.000 75 hurdat_epa main 472 465 O________OO___ hurdat_epa EP011958 14.0000 -104.000 HU 75 1 14.0000 -104.000 TC 75 14.0000 -104.000 4 6 303
1958157N12262 1958 39 EP MM NOT_NAMED 1958-06-08 15:00:00 TS 14.1550 -104.291 main 461 458 P________PP___ EP011958 14.1500 -104.285 HU 75 1 14.1500 -104.285 TC 75 14.1751 -104.316 4 7 298
1958157N12262 1958 39 EP MM NOT_NAMED 1958-06-08 18:00:00 TS 14.3100 -104.610 75 hurdat_epa main 461 450 O________OP___ hurdat_epa EP011958 14.3000 -104.600 HU 75 1 14.3000 -104.600 TC 75 14.3502 -104.650 4 7 298
1958157N12262 1958 39 EP MM NOT_NAMED 1958-06-08 21:00:00 TS 14.5051 -104.963 main 454 441 P________PP___ EP011958 14.5000 -104.957 HU 75 1 14.5000 -104.957 TC 75 14.5251 -104.984 4 8 300
1958157N12262 1958 39 EP MM NOT_NAMED 1958-06-09 00:00:00 TS 14.7000 -105.300 75 hurdat_epa main 446 440 O________OO___ hurdat_epa EP011958 14.7000 -105.300 HU 75 1 14.7000 -105.300 TC 75 14.7000 -105.300 4 7 301
1958157N12262 1958 39 EP MM NOT_NAMED 1958-06-09 03:00:00 TS 14.8500 -105.567 main 441 437 P________PP___ EP011958 14.8499 -105.565 HU 75 1 14.8499 -105.565 TC 75 14.8504 -105.576 4 6 302
1958157N12262 1958 39 EP MM NOT_NAMED 1958-06-09 06:00:00 TS 15.0010 -105.806 75 hurdat_epa main 443 437 O________OP___ hurdat_epa EP011958 15.0000 -105.800 HU 75 1 15.0000 -105.800 TC 75 15.0048 -105.831 4 6 305
1958157N12262 1958 39 EP MM NOT_NAMED 1958-06-09 09:00:00 TS 15.1783 -106.054 main 443 435 P________PP___ EP011958 15.1775 -106.050 HU 75 1 15.1775 -106.050 TC 75 15.1817 -106.070 4 6 310
1958157N12262 1958 39 EP MM NOT_NAMED 1958-06-09 12:00:00 TS 15.4000 -106.300 75 hurdat_epa main 440 431 O________OO___ hurdat_epa EP011958 15.4000 -106.300 HU 75 1 15.4000 -106.300 TC 75 15.4000 -106.300 4 7 316
1958157N12262 1958 39 EP MM NOT_NAMED 1958-06-09 15:00:00 TS 15.6832 -106.551 main 435 416 P________PP___ EP011958 15.6775 -106.558 HU 75 1 15.6775 -106.558 TC 75 15.7061 -106.524 4 8 322
1958157N12262 1958 39 EP MM NOT_NAMED 1958-06-09 18:00:00 TS 16.0100 -106.788 75 hurdat_epa main 416 390 O________OP___ hurdat_epa EP011958 16.0000 -106.800 HU 75 1 16.0000 -106.800 TC 75 16.0498 -106.742 4 8 329
1958157N12262 1958 39 EP MM NOT_NAMED 1958-06-09 21:00:00 TS 16.3706 -106.987 main 390 377 P________PP___ EP011958 16.3649 -106.993 HU 75 1 16.3649 -106.993 TC 75 16.3936 -106.965 4 8 330
1958157N12262 1958 39 EP MM NOT_NAMED 1958-06-10 00:00:00 TS 16.7000 -107.200 75 hurdat_epa main 377 376 O________OO___ hurdat_epa EP011958 16.7000 -107.200 HU 75 1 16.7000 -107.200 TC 75 16.7000 -107.200 4 7 319
1958157N12262 1958 39 EP MM NOT_NAMED 1958-06-10 03:00:00 TS 16.9293 -107.489 main 384 376 P________PP___ EP011958 16.9300 -107.493 HU 75 1 16.9300 -107.493 TC 75 16.9263 -107.477 4 7 305
1958157N12262 1958 39 EP MM NOT_NAMED 1958-06-10 06:00:00 TS 17.1020 -107.793 75 hurdat_epa main 391 391 O________OP___ hurdat_epa EP011958 17.1000 -107.800 HU 75 1 17.1000 -107.800 TC 75 17.1102 -107.765 4 6 301
1958157N12262 1958 39 EP MM NOT_NAMED 1958-06-10 09:00:00 TS 17.2588 -108.067 main 399 399 P________PP___ EP011958 17.2575 -108.073 HU 75 1 17.2575 -108.073 TC 75 17.2639 -108.046 4 6 302
1958157N12262 1958 39 EP MM NOT_NAMED 1958-06-10 12:00:00 TS 17.4000 -108.300 75 hurdat_epa main 407 407 O________OO___ hurdat_epa EP011958 17.4000 -108.300 HU 75 1 17.4000 -108.300 TC 75 17.4000 -108.300 4 5 308
1958157N12262 1958 39 EP MM NOT_NAMED 1958-06-10 15:00:00 TS 17.5554 -108.467 main 410 410 P________PP___ EP011958 17.5574 -108.458 HU 75 1 17.5574 -108.458 TC 75 17.5473 -108.504 4 4 314
1958157N12262 1958 39 EP MM NOT_NAMED 1958-06-10 18:00:00 TS 17.6959 -108.616 75 hurdat_epa main 413 413 O________OP___ hurdat_epa EP011958 17.7000 -108.600 HU 75 1 17.7000 -108.600 TC 75 17.6797 -108.680 4 4 308
1958157N12262 1958 39 EP MM NOT_NAMED 1958-06-10 21:00:00 TS 17.8115 -108.808 main 425 425 P________PP___ EP011958 17.8150 -108.800 HU 75 1 17.8150 -108.800 TC 75 17.7973 -108.841 4 4 299
1958157N12262 1958 39 EP MM NOT_NAMED 1958-06-11 00:00:00 TS 17.9000 -109.000 75 hurdat_epa main 436 436 O________OO___ hurdat_epa EP011958 17.9000 -109.000 HU 75 1 17.9000 -109.000 TC 75 17.9000 -109.000 4 4 294
1958157N12262 1958 39 EP MM NOT_NAMED 1958-06-11 03:00:00 TS 17.9570 -109.157 main 448 448 P________PP___ EP011958 17.9500 -109.150 HU 75 1 17.9500 -109.150 TC 75 17.9853 -109.183 4 3 290
1958157N12262 1958 39 EP MM NOT_NAMED 1958-06-11 06:00:00 TS 18.0115 -109.313 75 hurdat_epa main 457 457 O________OP___ hurdat_epa EP011958 18.0000 -109.300 HU 75 1 18.0000 -109.300 TC 75 18.0575 -109.365 4 4 293
1958157N12262 1958 39 EP MM NOT_NAMED 1958-06-11 09:00:00 TS 18.0992 -109.508 main 471 471 P________PP___ EP011958 18.0925 -109.500 HU 75 1 18.0925 -109.500 TC 75 18.1259 -109.539 4 4 297
1958157N12262 1958 39 EP MM NOT_NAMED 1958-06-11 12:00:00 TS 18.2000 -109.700 75 hurdat_epa main 485 485 O________OO___ hurdat_epa EP011958 18.2000 -109.700 HU 75 1 18.2000 -109.700 TC 75 18.2000 -109.700 4 4 301
1958157N12262 1958 39 EP MM NOT_NAMED 1958-06-11 15:00:00 TS 18.2994 -109.861 main 499 494 P________PP___ EP011958 18.3000 -109.865 HU 75 1 18.3000 -109.865 TC 75 18.2968 -109.843 4 3 305
1958157N12262 1958 39 EP MM NOT_NAMED 1958-06-11 18:00:00 TS 18.4000 -109.995 75 hurdat_epa main 503 492 O________OP___ hurdat_epa EP011958 18.4000 -110.000 HU 75 1 18.4000 -110.000 TC 75 18.3999 -109.973 4 3 312
1958157N12262 1958 39 EP MM NOT_NAMED 1958-06-11 21:00:00 TS 18.5066 -110.104 main 492 480 P________PP___ EP011958 18.5075 -110.108 HU 75 1 18.5075 -110.108 TC 75 18.5031 -110.090 4 3 316
1958157N12262 1958 39 EP MM NOT_NAMED 1958-06-12 00:00:00 TS 18.6000 -110.200 75 hurdat_epa main 481 470 O________OO___ hurdat_epa EP011958 18.6000 -110.200 HU 75 1 18.6000 -110.200 TC 75 18.6000 -110.200 4 2 309
1958157N12262 1958 39 EP MM NOT_NAMED 1958-06-12 03:00:00 TS 18.6556 -110.301 main 470 470 P________PP___ EP011958 18.6500 -110.300 HU 75 1 18.6500 -110.300 TC 75 18.6781 -110.307 4 2 300
1958157N12262 1958 39 EP MM NOT_NAMED 1958-06-12 06:00:00 TS 18.7100 -110.402 75 hurdat_epa main 471 461 O________OP___ hurdat_epa EP011958 18.7000 -110.400 HU 75 1 18.7000 -110.400 TC 75 18.7500 -110.408 4 2 307
1958157N12262 1958 39 EP MM NOT_NAMED 1958-06-12 09:00:00 TS 18.7984 -110.501 main 461 451 P________PP___ EP011958 18.7925 -110.500 HU 75 1 18.7925 -110.500 TC 75 18.8218 -110.504 4 3 315
1958157N12262 1958 39 EP MM NOT_NAMED 1958-06-12 12:00:00 TS 18.9000 -110.600 75 hurdat_epa main 451 442 O________OO___ hurdat_epa EP011958 18.9000 -110.600 HU 75 1 18.9000 -110.600 TC 75 18.9000 -110.600 4 3 316
1958157N12262 1958 39 EP MM NOT_NAMED 1958-06-12 15:00:00 TS 18.9986 -110.702 main 442 432 P________PP___ EP011958 19.0000 -110.700 HU 75 1 19.0000 -110.700 TC 75 18.9928 -110.708 4 3 316
1958157N12262 1958 39 EP MM NOT_NAMED 1958-06-12 18:00:00 TS 19.0985 -110.803 75 hurdat_epa main 432 424 O________OP___ hurdat_epa EP011958 19.1000 -110.800 HU 75 1 19.1000 -110.800 TC 75 19.0925 -110.815 4 3 315
1958157N12262 1958 39 EP MM NOT_NAMED 1958-06-12 21:00:00 TS 19.1992 -110.909 main 424 415 P________PP___ EP011958 19.2000 -110.908 HU 75 1 19.2000 -110.908 TC 75 19.1959 -110.914 4 3 317
1958157N12262 1958 39 EP MM NOT_NAMED 1958-06-13 00:00:00 TS 19.3000 -111.000 75 hurdat_epa main 415 404 O________OO___ hurdat_epa EP011958 19.3000 -111.000 HU 75 1 19.3000 -111.000 TC 75 19.3000 -111.000 4 2 324
1958157N12262 1958 39 EP MM NOT_NAMED 1958-06-13 03:00:00 TS 19.3992 -111.059 main 407 396 P________PP___ EP011958 19.4000 -111.058 HU 75 1 19.4000 -111.058 TC 75 19.3959 -111.064 4 2 334
1958157N12262 1958 39 EP MM NOT_NAMED 1958-06-13 06:00:00 TS 19.4985 -111.103 75 hurdat_epa main 396 386 O________OP___ hurdat_epa EP011958 19.5000 -111.100 HU 75 1 19.5000 -111.100 TC 75 19.4925 -111.115 4 2 337
1958157N12262 1958 39 EP MM NOT_NAMED 1958-06-13 09:00:00 TS 19.5986 -111.152 main 389 378 P________PP___ EP011958 19.6000 -111.150 HU 75 1 19.6000 -111.150 TC 75 19.5928 -111.158 4 2 336
1958157N12262 1958 39 EP MM NOT_NAMED 1958-06-13 12:00:00 TS 19.7000 -111.200 75 hurdat_epa main 378 368 O________OO___ hurdat_epa EP011958 19.7000 -111.200 HU 75 1 19.7000 -111.200 TC 75 19.7000 -111.200 4 2 332
1958157N12262 1958 39 EP MM NOT_NAMED 1958-06-13 15:00:00 TS 19.7894 -111.260 main 371 361 P________PP___ EP011958 19.7925 -111.250 HU 75 1 19.7925 -111.250 TC 75 19.7771 -111.302 4 2 330
1958157N12262 1958 39 EP MM NOT_NAMED 1958-06-13 18:00:00 TS 19.8935 -111.319 75 hurdat_epa main 361 355 O________OP___ hurdat_epa EP011958 19.9000 -111.300 HU 75 1 19.9000 -111.300 TC 75 19.8673 -111.396 4 3 329
1958157N12262 1958 39 EP MM NOT_NAMED 1958-06-13 21:00:00 TS 20.0097 -111.398 main 355 334 P________PP___ EP011958 20.0125 -111.387 HU 75 1 20.0125 -111.387 TC 75 19.9988 -111.443 4 3 346
1958157N12262 1958 39 EP MM NOT_NAMED 1958-06-14 00:00:00 TS 20.2000 -111.400 75 hurdat_epa main 334 300 O________OO___ hurdat_epa EP011958 20.2000 -111.400 HU 75 1 20.2000 -111.400 TC 75 20.2000 -111.400 4 5 15
1958157N12262 1958 39 EP MM NOT_NAMED 1958-06-14 03:00:00 TS 20.5131 -111.251 main 300 246 P________PP___ EP011958 20.5125 -111.260 HU 75 1 20.5125 -111.260 TC 75 20.5156 -111.215 4 8 29
1958157N12262 1958 39 EP MM NOT_NAMED 1958-06-14 06:00:00 TS 20.8996 -110.988 75 hurdat_epa main 246 192 O________OP___ hurdat_epa EP011958 20.9000 -111.000 HU 75 1 20.9000 -111.000 TC 75 20.8980 -110.941 4 10 35
1958157N12262 1958 39 EP MM NOT_NAMED 1958-06-14 09:00:00 TS 21.3074 -110.650 main 192 137 P________PP___ EP011958 21.3076 -110.658 HU 75 1 21.3076 -110.658 TC 75 21.3063 -110.622 4 10 39
1958157N12262 1958 39 EP MM NOT_NAMED 1958-06-14 12:00:00 TS 21.7000 -110.300 75 hurdat_epa main 137 100 O________OO___ hurdat_epa EP011958 21.7000 -110.300 HU 75 1 21.7000 -110.300 TC 75 21.7000 -110.300 4 9 39
1958157N12262 1958 39 EP MM NOT_NAMED 1958-06-14 15:00:00 TS 22.0215 -110.030 main 100 67 P________PP___ EP011958 22.0149 -110.035 HU 75 1 22.0149 -110.035 TC 75 22.0479 -110.012 4 8 38
1958157N12262 1958 39 EP MM NOT_NAMED 1958-06-14 18:00:00 TS 22.3086 -109.793 75 hurdat_epa main 67 39 O________OP___ hurdat_epa EP011958 22.3000 -109.800 HU 75 1 22.3000 -109.800 TC 75 22.3548 -109.757 4 7 37
1958157N12262 1958 39 EP MM NOT_NAMED 1958-06-14 21:00:00 TS 22.6171 -109.547 main 45 37 P________PP___ EP011958 22.6150 -109.550 HU 75 1 22.6150 -109.550 TC 75 22.6343 -109.523 4 7 38
1958157N12262 1958 39 EP MM NOT_NAMED 1958-06-15 00:00:00 TS 22.9000 -109.300 75 hurdat_epa main 37 37 O________OO___ hurdat_epa EP011958 22.9000 -109.300 HU 75 1 22.9000 -109.300 TC 75 22.9000 -109.300 4 7 41
1958157N12262 1958 39 EP MM NOT_NAMED 1958-06-15 03:00:00 TS 23.1299 -109.057 main 42 42 P________P____ EP011958 23.1299 -109.057 HU 50 0 23.1299 -109.057 TC 70 4 6 49
1958157N12262 1958 39 EP MM NOT_NAMED 1958-06-15 06:00:00 MX 23.3000 -108.800 25 hurdat_epa main 62 62 O________O____ hurdat_epa EP011958 23.3000 -108.800 TD 25 -1 23.3000 -108.800 65 4 6 61
1958157N12262 1958 39 EP MM NOT_NAMED 1958-06-15 09:00:00 MX 23.4226 -108.485 main 91 91 P________P____ EP011958 23.4226 -108.485 TD 25 -1 23.4226 -108.485 50 4 6 70
1958157N12262 1958 39 EP MM NOT_NAMED 1958-06-15 12:00:00 MX 23.5000 -108.200 25 hurdat_epa main 112 90 O________O____ hurdat_epa EP011958 23.5000 -108.200 TD 25 -1 23.5000 -108.200 35 5 71
1958157N12262 1958 39 EP MM NOT_NAMED 1958-06-15 15:00:00 MX 23.5724 -107.997 main 90 84 P________P____ EP011958 23.5724 -107.997 TD 25 -1 23.5724 -107.997 32 3 70
1958157N12262 1958 39 EP MM NOT_NAMED 1958-06-15 18:00:00 MX 23.6000 -107.900 25 hurdat_epa main 84 84 O________O____ hurdat_epa EP011958 23.6000 -107.900 TD 25 -1 23.6000 -107.900 30 1 94
1958157N12262 1958 39 EP MM NOT_NAMED 1958-06-15 21:00:00 MX 23.5675 -107.918 main 84 84 P________P____ EP011958 23.5675 -107.918 TD 25 -1 23.5675 -107.918 27 1 220
1958157N12262 1958 39 EP MM NOT_NAMED 1958-06-16 00:00:00 MX 23.5000 -108.000 25 hurdat_epa main 99 O________O____ hurdat_epa EP011958 23.5000 -108.000 TD 25 -1 23.5000 -108.000 25 2 230

IBTrACS Databaseについて

本データベースは、米国NOAAが公開する1842年以降の世界の熱帯低気圧のベストトラックデータアーカイブInternational Best Track Archive for Climate Stewardship (IBTrACS)を、ウェブで閲覧しやすい形式に変換したものです。

最終更新日:2021-10-08